createdAt,value
2022-08-23T00:01:19.434Z,66.10
2022-08-23T00:06:51.941Z,66.20
2022-08-23T00:12:26.792Z,66.30
2022-08-23T00:17:55.447Z,66.60
2022-08-23T00:23:27.689Z,66.80
2022-08-23T00:29:00.802Z,67.40
2022-08-23T00:34:29.679Z,67.10
2022-08-23T00:40:04.602Z,67.40
2022-08-23T00:46:27.236Z,67.70
2022-08-23T00:52:29.936Z,67.80
2022-08-23T00:58:01.207Z,68.20
2022-08-23T01:03:38.370Z,68.10
2022-08-23T01:09:14.925Z,68.20
2022-08-23T01:15:03.471Z,68.40
2022-08-23T01:20:58.593Z,68.50
2022-08-23T01:32:09.356Z,68.90
2022-08-23T01:37:38.761Z,69.00
2022-08-23T01:43:09.091Z,69.50
2022-08-23T01:48:45.276Z,69.40
2022-08-23T01:54:39.413Z,69.60
2022-08-23T02:00:14.682Z,70.30
2022-08-23T02:05:45.985Z,70.00
2022-08-23T02:11:27.566Z,70.20
2022-08-23T02:17:03.704Z,70.40
2022-08-23T02:22:39.919Z,70.50
2022-08-23T02:33:37.386Z,70.90
2022-08-23T02:39:08.414Z,71.10
2022-08-23T02:44:41.399Z,71.10
2022-08-23T02:50:16.375Z,71.30
2022-08-23T02:55:51.743Z,71.60
2022-08-23T03:07:01.460Z,71.80
2022-08-23T03:12:38.965Z,71.90
2022-08-23T03:18:08.906Z,72.10
2022-08-23T03:23:39.870Z,72.40
2022-08-23T03:29:08.988Z,72.40
2022-08-23T03:40:25.688Z,73.00
2022-08-23T03:45:59.548Z,72.50
2022-08-23T03:51:33.082Z,72.70
2022-08-23T03:57:11.550Z,72.90
2022-08-23T04:08:14.275Z,73.20
2022-08-23T04:13:55.466Z,73.40
2022-08-23T04:31:24.459Z,73.90
2022-08-23T04:36:59.746Z,74.20
2022-08-23T04:42:28.938Z,74.20
2022-08-23T04:59:12.986Z,74.50
2022-08-23T05:10:17.614Z,74.50
2022-08-23T05:15:52.879Z,74.60
2022-08-23T05:21:26.296Z,74.60
2022-08-23T05:26:54.906Z,74.90
2022-08-23T05:43:26.461Z,74.70
2022-08-23T05:48:57.627Z,74.90
2022-08-23T05:54:27.667Z,74.90
2022-08-23T06:00:16.038Z,74.70
2022-08-23T06:05:52.423Z,74.80
2022-08-23T06:11:29.560Z,75.00
2022-08-23T06:22:30.842Z,74.60
2022-08-23T06:27:59.865Z,74.50
2022-08-23T06:33:37.526Z,74.50
2022-08-23T06:39:37.663Z,74.50
2022-08-23T06:45:35.137Z,74.60
2022-08-23T06:51:16.602Z,74.40
2022-08-23T06:56:55.754Z,74.80
2022-08-23T07:02:33.100Z,74.70
2022-08-23T07:08:36.996Z,74.80
2022-08-23T07:14:10.714Z,74.60
2022-08-23T07:19:39.526Z,74.50
2022-08-23T07:25:11.129Z,74.50
2022-08-23T07:36:28.681Z,73.80
2022-08-23T07:42:06.970Z,73.70
2022-08-23T07:47:54.153Z,73.40
2022-08-23T07:59:11.534Z,73.00
2022-08-23T08:04:47.927Z,72.70
2022-08-23T08:10:19.037Z,72.50
2022-08-23T08:21:18.708Z,71.20
2022-08-23T08:27:08.720Z,71.40
2022-08-23T08:32:46.811Z,70.50
2022-08-23T08:38:16.066Z,70.10
2022-08-23T08:44:15.799Z,70.10
2022-08-23T08:49:58.441Z,69.80
2022-08-23T08:55:43.529Z,69.10
2022-08-23T09:01:12.858Z,69.00
2022-08-23T09:07:04.115Z,68.50
2022-08-23T09:13:00.022Z,67.80
2022-08-23T09:18:39.592Z,67.10
2022-08-23T09:24:08.525Z,67.00
2022-08-23T09:29:58.940Z,66.20
2022-08-23T09:35:27.749Z,65.90
2022-08-23T09:41:22.237Z,65.10
2022-08-23T09:47:17.387Z,65.00
2022-08-23T09:53:04.810Z,64.50
2022-08-23T09:58:45.412Z,64.00
2022-08-23T10:04:41.409Z,63.20
2022-08-23T10:10:36.368Z,63.00
2022-08-23T10:16:36.944Z,63.20
2022-08-23T10:22:23.284Z,62.50
2022-08-23T10:29:23.228Z,61.50
2022-08-23T10:35:32.084Z,61.40
2022-08-23T10:41:34.586Z,60.60
2022-08-23T10:47:30.739Z,60.20
2022-08-23T10:53:11.594Z,60.10
2022-08-23T10:58:55.458Z,59.30
2022-08-23T11:04:30.609Z,59.00
2022-08-23T11:10:55.764Z,58.10
2022-08-23T11:16:32.285Z,57.60
2022-08-23T11:22:23.316Z,56.90
2022-08-23T11:28:30.314Z,56.80
2022-08-23T11:34:12.169Z,56.40
2022-08-23T11:40:04.656Z,55.70
2022-08-23T11:45:47.987Z,55.40
2022-08-23T11:51:52.712Z,54.90
2022-08-23T11:58:09.344Z,53.20
2022-08-23T12:04:12.524Z,53.50
2022-08-23T12:09:41.072Z,52.60
2022-08-23T12:15:12.544Z,52.40
2022-08-23T12:20:42.289Z,51.20
2022-08-23T12:26:49.899Z,51.30
2022-08-23T12:33:04.966Z,51.10
2022-08-23T12:39:16.099Z,50.80
2022-08-23T12:45:07.333Z,50.30
2022-08-23T12:50:44.230Z,50.10
2022-08-23T12:56:32.136Z,50.30
2022-08-23T13:02:07.183Z,50.30
2022-08-23T13:07:36.271Z,50.10
2022-08-23T13:13:15.300Z,49.50
2022-08-23T13:18:46.842Z,49.50
2022-08-23T13:24:41.584Z,49.60
2022-08-23T13:30:10.117Z,49.40
2022-08-23T13:35:41.249Z,48.90
2022-08-23T13:41:27.676Z,48.90
2022-08-23T13:46:56.115Z,48.40
2022-08-23T13:58:34.800Z,48.00
2022-08-23T14:04:04.596Z,47.80
2022-08-23T14:09:38.462Z,47.00
2022-08-23T14:15:14.034Z,46.70
2022-08-23T14:20:44.510Z,41.10
2022-08-23T14:26:23.508Z,41.00
2022-08-23T14:31:52.657Z,33.00
2022-08-23T14:38:02.435Z,32.20
2022-08-23T14:43:13.433Z,30.30
2022-08-23T14:48:54.009Z,29.40
2022-08-23T14:54:29.267Z,29.30
2022-08-23T14:59:59.097Z,32.30
2022-08-23T15:05:28.124Z,31.90
2022-08-23T15:16:48.128Z,37.20
2022-08-23T15:22:18.676Z,37.30
2022-08-23T15:27:52.248Z,38.30
2022-08-23T15:33:25.386Z,38.90
2022-08-23T15:38:58.879Z,38.80
2022-08-23T15:44:27.798Z,39.10
2022-08-23T15:49:59.374Z,40.00
2022-08-23T15:55:34.222Z,40.30
2022-08-23T16:06:38.300Z,40.60
2022-08-23T16:17:41.351Z,41.10
2022-08-23T16:23:19.273Z,41.10
2022-08-23T16:28:55.821Z,42.00
2022-08-23T16:34:25.802Z,41.90
2022-08-23T16:39:57.008Z,42.00
2022-08-23T16:45:26.515Z,41.90
2022-08-23T16:50:55.618Z,42.00
2022-08-23T16:56:24.211Z,42.10
2022-08-23T17:02:10.651Z,42.30
2022-08-23T17:07:44.894Z,42.30
2022-08-23T17:13:14.823Z,42.70
2022-08-23T17:18:43.843Z,42.70
2022-08-23T17:24:15.190Z,43.10
2022-08-23T17:29:44.025Z,43.20
2022-08-23T17:35:15.203Z,43.30
2022-08-23T17:40:43.627Z,43.50
2022-08-23T17:46:11.684Z,43.90
2022-08-23T17:51:41.244Z,44.00
2022-08-23T17:57:11.793Z,44.20
2022-08-23T18:02:39.705Z,44.40
2022-08-23T18:08:09.649Z,44.70
2022-08-23T18:13:37.595Z,44.80
2022-08-23T18:19:07.378Z,45.30
2022-08-23T18:24:39.321Z,45.70
2022-08-23T18:30:09.896Z,46.00
2022-08-23T18:35:38.124Z,46.20
2022-08-23T18:41:06.160Z,46.40
2022-08-23T18:46:38.197Z,46.90
2022-08-23T18:52:06.636Z,47.20
2022-08-23T18:57:34.517Z,47.60
2022-08-23T19:03:04.591Z,47.90
2022-08-23T19:08:32.523Z,48.40
2022-08-23T19:14:01.912Z,48.60
2022-08-23T19:19:31.544Z,49.20
2022-08-23T19:24:59.565Z,48.90
2022-08-23T19:30:28.608Z,49.60
2022-08-23T19:35:58.195Z,50.10
2022-08-23T19:41:26.192Z,50.60
2022-08-23T19:46:58.530Z,50.70
2022-08-23T19:52:27.073Z,51.30
2022-08-23T19:57:56.517Z,51.50
2022-08-23T20:03:24.431Z,51.90
2022-08-23T20:08:52.430Z,51.50
2022-08-23T20:14:23.362Z,52.50
2022-08-23T20:19:51.381Z,52.90
2022-08-23T20:25:19.659Z,53.30
2022-08-23T20:30:47.637Z,53.60
2022-08-23T20:36:18.383Z,53.80
2022-08-23T20:41:46.497Z,54.10
2022-08-23T20:47:15.933Z,54.40
2022-08-23T20:58:15.061Z,54.90
2022-08-23T21:03:43.810Z,55.10
2022-08-23T21:09:17.013Z,55.30
2022-08-23T21:14:44.982Z,55.50
2022-08-23T21:20:12.918Z,55.80
2022-08-23T21:25:41.528Z,55.70
2022-08-23T21:31:14.445Z,56.00
2022-08-23T21:36:42.383Z,56.30
2022-08-23T21:42:14.937Z,56.50
2022-08-23T21:58:41.008Z,56.90
2022-08-23T22:04:13.086Z,57.00
2022-08-23T22:20:38.472Z,57.70
2022-08-23T22:26:07.184Z,57.50
2022-08-23T22:31:37.965Z,57.90
2022-08-23T22:37:06.461Z,58.00
2022-08-23T22:42:34.504Z,58.30
2022-08-23T22:48:04.321Z,58.30
2022-08-23T23:04:29.477Z,59.00
2022-08-23T23:09:57.570Z,59.00
2022-08-23T23:31:54.480Z,60.00
2022-08-23T23:53:51.512Z,60.80
2022-08-23T23:59:20.439Z,60.90
